Collegeville, Indiana
Current Conditions -  °F | °C
As of 10:35 PM on Wednesday 22 Oct 2014 (Local Time) from KRZL Reporting Station
Clear Clear  
Wind Chill: 37°   Ceiling: Unl
Heat Index: 37°   Visibility: 10mi
Dew Point: 37°   Wind: 3mph
Humidity: 100%   Direction: 50°NE
Pressure: 30.28"   Gusts: NA
Location:  40.9571°N, 87.0941°W
Report Text: KRZL 230335Z AUTO 05003KT 10SM CLR 03/03 A3028 RMK AO2
Loading
Personal Weather Stations






























Interactive Weather Map
Tropical Storm Tracking
New forecast layout! Learn more

10-Day Weather Forecast

Advertisements
Track Severe Weather on mobile